Time;durP1;ratioP1;P1;durP2;ratioP2;P2;SDS_P1;SDS_P2;PMS_P1;PMS_P2;Temp;Humidity;BMP_temperature;BMP_pressure;BME280_temperature;BME280_humidity;BME280_pressure;Samples;Min_cycle;Max_cycle;Signal;HPM_P1;HPM_P2
2022/03/02 00:00:56;;;;;;;41.40;23.47;;;6.10;99.90;;;;;;5024799;28;20210;-71
2022/03/02 00:04:02;;;;;;;44.70;24.23;;;6.00;99.90;;;;;;5027161;28;20189;-71
2022/03/02 00:07:08;;;;;;;47.30;23.57;;;6.00;99.90;;;;;;5033064;28;20204;-71
2022/03/02 00:09:38;;;;;;;47.37;24.97;;;6.00;99.90;;;;;;5022170;28;20192;-70
2022/03/02 00:12:07;;;;;;;45.87;25.37;;;6.00;99.90;;;;;;5025012;28;20205;-71
2022/03/02 00:14:35;;;;;;;42.40;23.33;;;6.00;99.90;;;;;;5034115;28;20218;-71
2022/03/02 00:17:05;;;;;;;45.77;24.23;;;5.90;99.90;;;;;;5027527;28;20224;-71
2022/03/02 00:19:34;;;;;;;48.60;24.43;;;5.90;99.90;;;;;;5028906;28;20181;-70
2022/03/02 00:22:03;;;;;;;47.87;24.90;;;5.80;99.90;;;;;;5031799;28;20231;-70
2022/03/02 00:24:31;;;;;;;40.87;22.13;;;5.80;99.90;;;;;;5025599;28;20719;-71
2022/03/02 00:27:00;;;;;;;43.60;24.50;;;5.80;99.90;;;;;;5025345;28;20206;-71
2022/03/02 00:29:28;;;;;;;45.63;23.30;;;5.70;99.90;;;;;;5023234;28;20254;-71
2022/03/02 00:31:56;;;;;;;43.87;23.80;;;5.60;99.90;;;;;;5011936;28;20288;-70
2022/03/02 00:34:27;;;;;;;48.53;23.33;;;5.60;99.90;;;;;;5022057;28;20688;-71
2022/03/02 00:36:55;;;;;;;45.63;24.30;;;5.50;99.90;;;;;;5022958;28;20225;-71
2022/03/02 00:39:23;;;;;;;43.37;23.13;;;5.50;99.90;;;;;;5026839;28;20228;-71
2022/03/02 00:41:52;;;;;;;41.73;23.30;;;5.40;99.90;;;;;;5024491;28;20197;-71
2022/03/02 00:44:20;;;;;;;45.07;23.97;;;5.40;99.90;;;;;;5021620;28;20370;-71
2022/03/02 00:46:49;;;;;;;46.27;23.77;;;5.30;99.90;;;;;;5029221;28;20276;-71
2022/03/02 00:49:18;;;;;;;45.37;24.07;;;5.30;99.90;;;;;;5027816;28;20247;-71
2022/03/02 00:51:48;;;;;;;43.27;23.87;;;5.20;99.90;;;;;;5027483;28;20280;-71
2022/03/02 00:54:16;;;;;;;46.67;23.07;;;5.20;99.90;;;;;;5025769;28;20201;-71
2022/03/02 00:56:45;;;;;;;47.10;24.63;;;5.20;99.90;;;;;;5023549;28;20416;-70
2022/03/02 00:59:14;;;;;;;47.03;24.50;;;5.10;99.90;;;;;;5019982;28;20243;-70
2022/03/02 01:01:42;;;;;;;43.80;22.87;;;5.10;99.90;;;;;;5021868;28;20220;-70
2022/03/02 01:04:11;;;;;;;47.87;23.43;;;5.10;99.90;;;;;;5023009;28;20243;-70
2022/03/02 01:06:39;;;;;;;45.37;24.23;;;5.10;99.90;;;;;;5024788;28;20228;-70
2022/03/02 01:09:08;;;;;;;44.30;23.93;;;5.10;99.90;;;;;;5025194;28;20780;-70
2022/03/02 01:11:37;;;;;;;47.33;23.73;;;5.10;99.90;;;;;;5026282;28;20225;-70
2022/03/02 01:14:06;;;;;;;48.43;24.77;;;5.10;99.90;;;;;;5025633;28;20299;-70
2022/03/02 01:16:35;;;;;;;45.20;25.07;;;5.00;99.90;;;;;;5041731;28;20255;-70
2022/03/02 01:19:04;;;;;;;51.57;27.77;;;5.00;99.90;;;;;;5024631;28;20289;-69
2022/03/02 01:21:32;;;;;;;55.57;26.17;;;5.00;99.90;;;;;;5027848;28;20611;-71
2022/03/02 01:24:02;;;;;;;50.03;25.97;;;5.00;99.90;;;;;;5026326;28;20191;-70
2022/03/02 01:26:32;;;;;;;50.47;25.80;;;5.10;99.90;;;;;;5017248;28;20690;-70
2022/03/02 01:29:00;;;;;;;52.70;26.47;;;5.10;99.90;;;;;;5024348;28;20197;-70
2022/03/02 01:31:31;;;;;;;50.70;26.93;;;5.10;99.90;;;;;;5023251;28;20295;-70
2022/03/02 01:34:00;;;;;;;50.43;26.90;;;5.10;99.90;;;;;;5024521;28;20912;-70
2022/03/02 01:36:28;;;;;;;45.83;25.03;;;5.10;99.90;;;;;;5027605;28;20233;-70
2022/03/02 01:38:56;;;;;;;51.20;25.43;;;5.20;99.90;;;;;;5029008;28;20204;-71
2022/03/02 01:41:26;;;;;;;50.37;26.77;;;5.20;99.90;;;;;;5024225;28;20254;-70
2022/03/02 01:43:57;;;;;;;51.10;27.03;;;5.20;99.90;;;;;;5032597;28;20222;-70
2022/03/02 01:46:25;;;;;;;50.97;25.93;;;5.20;99.90;;;;;;5023171;28;20219;-70
2022/03/02 01:48:54;;;;;;;49.13;25.97;;;5.20;99.90;;;;;;5024953;28;20276;-70
2022/03/02 01:51:22;;;;;;;54.43;27.07;;;5.30;99.90;;;;;;5036110;28;20202;-71
2022/03/02 01:53:51;;;;;;;47.97;25.93;;;5.30;99.90;;;;;;5034864;28;20267;-70
2022/03/02 01:56:19;;;;;;;53.03;28.20;;;5.30;99.90;;;;;;5018634;28;20225;-70
2022/03/02 01:58:48;;;;;;;47.53;25.87;;;5.40;99.90;;;;;;5029349;28;20193;-70
2022/03/02 02:01:18;;;;;;;49.73;26.03;;;5.40;99.90;;;;;;5022698;28;20210;-70
2022/03/02 02:03:46;;;;;;;50.53;26.30;;;5.40;99.90;;;;;;5026070;28;20225;-70
2022/03/02 02:06:15;;;;;;;51.80;26.50;;;5.40;99.90;;;;;;5021265;28;20280;-71
2022/03/02 02:08:44;;;;;;;53.03;27.03;;;5.40;99.90;;;;;;5020717;28;20599;-70
2022/03/02 02:11:13;;;;;;;51.63;26.87;;;5.40;99.90;;;;;;5025806;28;20285;-70
2022/03/02 02:13:42;;;;;;;50.67;26.90;;;5.40;99.90;;;;;;5023816;28;20197;-70
2022/03/02 02:16:12;;;;;;;47.00;25.43;;;5.40;99.90;;;;;;5022121;28;20253;-70
2022/03/02 02:18:42;;;;;;;50.33;26.03;;;5.40;99.90;;;;;;5028223;28;20201;-67
2022/03/02 02:21:12;;;;;;;56.50;28.33;;;5.40;99.90;;;;;;5029528;28;20204;-67
2022/03/02 02:23:40;;;;;;;52.80;26.53;;;5.40;99.90;;;;;;5025915;28;20284;-67
2022/03/02 02:26:09;;;;;;;49.83;26.47;;;5.50;99.90;;;;;;5026090;28;20224;-67
2022/03/02 02:28:37;;;;;;;51.37;27.03;;;5.50;99.90;;;;;;5026979;28;20229;-67
2022/03/02 02:31:06;;;;;;;50.43;27.13;;;5.50;99.90;;;;;;5028099;28;20251;-67
2022/03/02 02:33:35;;;;;;;49.03;26.47;;;5.50;99.90;;;;;;5026306;28;20714;-67
2022/03/02 02:36:03;;;;;;;49.97;27.00;;;5.50;99.90;;;;;;5014413;28;20221;-67
2022/03/02 02:38:33;;;;;;;56.90;27.27;;;5.50;99.90;;;;;;5026840;28;20205;-67
2022/03/02 02:41:02;;;;;;;46.87;25.63;;;5.50;99.90;;;;;;5033445;28;20299;-67
2022/03/02 02:43:30;;;;;;;48.93;25.30;;;5.50;99.90;;;;;;5031466;28;20224;-67
2022/03/02 02:45:58;;;;;;;47.77;25.97;;;5.60;99.90;;;;;;5027938;28;20268;-67
2022/03/02 02:48:27;;;;;;;50.60;26.77;;;5.60;99.90;;;;;;5038598;28;20197;-67
2022/03/02 02:50:55;;;;;;;48.10;25.93;;;5.60;99.90;;;;;;5033939;28;20201;-67
2022/03/02 02:53:23;;;;;;;51.87;26.60;;;5.60;99.90;;;;;;5027181;28;20624;-67
2022/03/02 02:55:54;;;;;;;42.73;24.00;;;5.60;99.90;;;;;;5024682;28;20288;-67
2022/03/02 02:58:22;;;;;;;45.93;25.47;;;5.50;99.90;;;;;;5026188;28;20220;-67
2022/03/02 03:00:50;;;;;;;51.37;26.77;;;5.50;99.90;;;;;;5032077;28;20276;-67
2022/03/02 03:03:20;;;;;;;52.60;25.60;;;5.50;99.90;;;;;;5029098;28;20198;-67
2022/03/02 03:05:50;;;;;;;49.33;24.90;;;5.50;99.90;;;;;;5027523;28;20273;-67
2022/03/02 03:08:18;;;;;;;50.77;26.23;;;5.50;99.90;;;;;;5026254;28;20248;-67
2022/03/02 03:10:47;;;;;;;51.57;26.37;;;5.50;99.90;;;;;;5029983;28;20327;-67
2022/03/02 03:13:17;;;;;;;52.90;26.37;;;5.50;99.90;;;;;;5021348;28;20229;-67
2022/03/02 03:15:45;;;;;;;52.87;25.67;;;5.50;99.90;;;;;;5033057;28;20307;-67
2022/03/02 03:18:14;;;;;;;49.00;26.93;;;5.40;99.90;;;;;;5030501;28;20229;-67
2022/03/02 03:20:43;;;;;;;44.70;25.83;;;5.40;99.90;;;;;;5030363;28;20707;-67
2022/03/02 03:23:13;;;;;;;45.37;25.07;;;5.40;99.90;;;;;;5035512;28;20194;-67
2022/03/02 03:25:41;;;;;;;49.80;26.43;;;5.40;99.90;;;;;;5025233;28;20616;-67
2022/03/02 03:28:10;;;;;;;47.43;25.10;;;5.30;99.90;;;;;;5018819;28;20181;-67
2022/03/02 03:30:39;;;;;;;46.93;25.30;;;5.30;99.90;;;;;;5023570;28;20229;-67
2022/03/02 03:33:08;;;;;;;45.73;25.10;;;5.30;99.90;;;;;;5019663;28;20200;-67
2022/03/02 03:35:36;;;;;;;45.90;25.57;;;5.30;99.90;;;;;;5033940;28;20224;-67
2022/03/02 03:38:05;;;;;;;40.30;23.43;;;5.30;99.90;;;;;;5023152;28;20229;-67
2022/03/02 03:40:34;;;;;;;42.93;24.63;;;5.20;99.90;;;;;;5023129;28;20823;-67
2022/03/02 03:43:02;;;;;;;44.00;23.77;;;5.20;99.90;;;;;;5023343;28;20232;-67
2022/03/02 03:45:30;;;;;;;43.60;24.67;;;5.10;99.90;;;;;;5026190;28;20272;-67
2022/03/02 03:48:00;;;;;;;49.97;25.77;;;5.10;99.90;;;;;;5025796;28;20593;-67
2022/03/02 03:50:29;;;;;;;48.77;25.60;;;5.00;99.90;;;;;;5031154;28;20225;-67
2022/03/02 03:52:57;;;;;;;49.40;24.67;;;5.00;99.90;;;;;;5030448;28;20201;-67
2022/03/02 03:55:25;;;;;;;55.77;25.20;;;5.00;99.90;;;;;;5036896;28;20265;-67
2022/03/02 03:57:54;;;;;;;41.60;23.47;;;4.90;99.90;;;;;;5025119;28;21703;-67
2022/03/02 04:00:22;;;;;;;48.43;25.40;;;4.90;99.90;;;;;;5028183;28;20285;-67
2022/03/02 04:02:50;;;;;;;51.23;25.23;;;4.90;99.90;;;;;;5025341;28;20224;-67
2022/03/02 04:05:20;;;;;;;56.90;26.13;;;4.90;99.90;;;;;;5020897;28;20708;-67
2022/03/02 04:07:48;;;;;;;51.20;26.37;;;4.90;99.90;;;;;;5026050;28;20302;-67
2022/03/02 04:10:18;;;;;;;49.97;25.23;;;4.90;99.90;;;;;;5024112;28;20276;-67
2022/03/02 04:12:47;;;;;;;52.43;26.13;;;4.90;99.90;;;;;;5025868;28;20328;-67
2022/03/02 04:15:15;;;;;;;51.00;25.07;;;4.90;99.90;;;;;;5023222;28;20293;-66
2022/03/02 04:17:44;;;;;;;48.03;24.87;;;5.00;99.90;;;;;;5027921;28;20213;-66
2022/03/02 04:20:13;;;;;;;48.20;26.47;;;4.90;99.90;;;;;;5035059;28;20288;-67
2022/03/02 04:22:43;;;;;;;45.97;25.60;;;4.90;99.90;;;;;;5022660;28;20526;-67
2022/03/02 04:25:12;;;;;;;51.97;26.23;;;4.90;99.90;;;;;;5031951;28;20204;-66
2022/03/02 04:27:40;;;;;;;46.27;25.43;;;4.80;99.90;;;;;;5026495;28;20225;-66
2022/03/02 04:30:10;;;;;;;45.03;24.37;;;4.80;99.90;;;;;;5026753;28;20252;-67
2022/03/02 04:32:38;;;;;;;47.43;24.77;;;4.80;99.90;;;;;;5021541;28;20271;-67
2022/03/02 04:35:09;;;;;;;51.93;25.80;;;4.80;99.90;;;;;;5022613;28;20196;-67
2022/03/02 04:37:38;;;;;;;44.77;24.20;;;4.80;99.90;;;;;;5029486;28;20711;-67
2022/03/02 04:40:12;;;;;;;42.30;24.33;;;4.80;99.90;;;;;;5023399;28;20200;-67
2022/03/02 04:42:41;;;;;;;45.50;24.10;;;4.70;99.90;;;;;;5032922;28;20224;-67
2022/03/02 04:45:10;;;;;;;49.20;25.67;;;4.70;99.90;;;;;;5026843;28;20194;-68
2022/03/02 04:47:38;;;;;;;49.03;26.50;;;4.70;99.90;;;;;;5021858;28;20251;-67
2022/03/02 04:50:08;;;;;;;49.40;24.83;;;4.70;99.90;;;;;;5027784;28;20331;-67
2022/03/02 04:52:37;;;;;;;44.70;24.83;;;4.70;99.90;;;;;;5029893;28;20293;-67
2022/03/02 04:55:09;;;;;;;44.30;24.10;;;4.60;99.90;;;;;;5024495;28;20614;-67
2022/03/02 04:57:42;;;;;;;43.83;23.87;;;4.60;99.90;;;;;;5043510;28;20224;-67
2022/03/02 05:00:13;;;;;;;44.43;24.50;;;4.60;99.90;;;;;;5027829;28;20197;-66
2022/03/02 05:02:41;;;;;;;45.47;23.43;;;4.60;99.90;;;;;;5028522;28;20213;-67
2022/03/02 05:05:11;;;;;;;47.57;24.73;;;4.50;99.90;;;;;;5038552;28;20194;-66
2022/03/02 05:07:40;;;;;;;48.00;24.10;;;4.50;99.90;;;;;;5028464;28;20664;-67
2022/03/02 05:10:10;;;;;;;43.33;23.80;;;4.50;99.90;;;;;;5031701;28;20268;-67
2022/03/02 05:12:41;;;;;;;48.23;24.23;;;4.50;99.90;;;;;;5022539;28;20225;-67
2022/03/02 05:15:11;;;;;;;46.37;24.13;;;4.50;99.90;;;;;;5024306;28;20263;-67
2022/03/02 05:17:40;;;;;;;48.90;24.87;;;4.50;99.90;;;;;;5025051;28;20295;-66
2022/03/02 05:20:10;;;;;;;42.53;23.93;;;4.40;99.90;;;;;;5027848;28;20212;-67
2022/03/02 05:22:39;;;;;;;48.27;23.90;;;4.40;99.90;;;;;;5026394;28;20256;-67
2022/03/02 05:25:10;;;;;;;42.93;23.50;;;4.40;99.90;;;;;;5033940;28;20262;-66
2022/03/02 05:27:41;;;;;;;44.13;24.40;;;4.40;99.90;;;;;;5026414;28;20201;-66
2022/03/02 05:30:12;;;;;;;51.20;23.93;;;4.40;99.90;;;;;;5029353;28;20193;-67
2022/03/02 05:32:42;;;;;;;45.77;24.07;;;4.30;99.90;;;;;;5021993;28;20206;-67
2022/03/02 05:35:10;;;;;;;53.00;24.60;;;4.30;99.90;;;;;;5026841;28;20201;-67
2022/03/02 05:37:42;;;;;;;50.07;24.77;;;4.30;99.90;;;;;;5025645;28;20219;-66
2022/03/02 05:40:13;;;;;;;45.90;25.00;;;4.30;99.90;;;;;;5019643;28;20193;-67
2022/03/02 05:42:44;;;;;;;47.67;24.53;;;4.30;99.90;;;;;;5033611;28;20193;-67
2022/03/02 05:45:12;;;;;;;43.17;24.63;;;4.20;99.90;;;;;;5030092;28;20259;-67
2022/03/02 05:47:41;;;;;;;42.13;24.87;;;4.20;99.90;;;;;;5028480;28;20276;-66
2022/03/02 05:50:11;;;;;;;51.17;24.47;;;4.20;99.90;;;;;;5028106;28;20281;-67
2022/03/02 05:52:39;;;;;;;48.97;24.83;;;4.30;99.90;;;;;;5027003;28;20216;-66
2022/03/02 05:55:09;;;;;;;47.50;24.70;;;4.30;99.90;;;;;;5031423;28;20287;-67
2022/03/02 05:57:38;;;;;;;52.73;25.37;;;4.30;99.90;;;;;;5025528;28;20225;-66
2022/03/02 06:00:09;;;;;;;46.37;24.70;;;4.30;99.90;;;;;;5027929;28;20205;-66
2022/03/02 06:02:38;;;;;;;55.90;24.57;;;4.30;99.90;;;;;;5024869;28;20212;-67
2022/03/02 06:05:09;;;;;;;47.90;23.60;;;4.30;99.90;;;;;;5026880;28;20553;-66
2022/03/02 06:07:38;;;;;;;48.37;24.10;;;4.30;99.90;;;;;;5026670;28;20248;-67
2022/03/02 06:10:07;;;;;;;52.70;25.67;;;4.30;99.90;;;;;;5028822;28;20201;-67
2022/03/02 06:12:36;;;;;;;45.63;24.80;;;4.20;99.90;;;;;;5026588;28;20288;-67
2022/03/02 06:15:08;;;;;;;51.73;25.27;;;4.20;99.90;;;;;;5029932;28;20193;-66
2022/03/02 06:17:37;;;;;;;59.17;25.53;;;4.20;99.90;;;;;;5032765;28;20218;-67
2022/03/02 06:20:07;;;;;;;47.87;25.23;;;4.20;99.90;;;;;;5029799;28;20247;-66
2022/03/02 06:22:36;;;;;;;49.77;24.50;;;4.20;99.90;;;;;;5027762;28;20399;-66
2022/03/02 06:25:07;;;;;;;47.90;24.03;;;4.20;99.90;;;;;;5030024;28;20204;-67
2022/03/02 06:27:36;;;;;;;49.90;24.70;;;4.20;99.90;;;;;;5028059;28;20193;-67
2022/03/02 06:30:08;;;;;;;48.00;25.33;;;4.20;99.90;;;;;;5031807;28;20190;-67
2022/03/02 06:32:36;;;;;;;50.67;24.83;;;4.20;99.90;;;;;;5027047;28;20204;-66
2022/03/02 06:35:06;;;;;;;45.63;24.23;;;4.20;99.90;;;;;;5032674;28;20255;-66
2022/03/02 06:37:35;;;;;;;48.63;24.97;;;4.20;99.90;;;;;;5026943;28;20228;-66
2022/03/02 06:40:06;;;;;;;53.57;25.07;;;4.30;99.90;;;;;;5027448;28;20271;-67
2022/03/02 06:42:43;;;;;;;45.77;23.40;;;4.30;99.90;;;;;;5033176;28;20197;-67
2022/03/02 06:45:19;;;;;;;49.90;24.23;;;4.30;99.90;;;;;;5031922;28;20857;-67
2022/03/02 06:47:53;;;;;;;42.73;22.67;;;4.30;99.90;;;;;;5031805;28;20204;-66
2022/03/02 06:50:26;;;;;;;42.33;22.47;;;4.40;99.90;;;;;;5024797;28;20194;-67
2022/03/02 06:52:56;;;;;;;52.00;23.80;;;4.40;99.90;;;;;;5019890;28;20194;-66
2022/03/02 06:55:26;;;;;;;43.30;22.83;;;4.50;99.90;;;;;;5028979;28;20276;-67
2022/03/02 06:57:57;;;;;;;46.87;22.73;;;4.50;99.90;;;;;;5025304;28;20217;-67
2022/03/02 07:00:27;;;;;;;43.93;22.17;;;4.60;99.90;;;;;;5031575;28;20186;-66
2022/03/02 07:03:04;;;;;;;46.00;22.70;;;4.60;99.90;;;;;;5032781;28;20205;-66
2022/03/02 07:05:33;;;;;;;36.93;20.23;;;4.60;99.90;;;;;;5029135;28;20189;-67
2022/03/02 07:08:03;;;;;;;46.47;21.47;;;4.70;99.90;;;;;;5027406;28;20225;-67
2022/03/02 07:10:33;;;;;;;40.67;21.43;;;4.70;99.90;;;;;;5028997;28;20200;-66
2022/03/02 07:13:05;;;;;;;46.03;22.37;;;4.70;99.90;;;;;;5029363;28;20196;-67
2022/03/02 07:15:36;;;;;;;38.80;21.20;;;4.80;99.90;;;;;;5026877;28;20669;-67
2022/03/02 07:18:07;;;;;;;41.53;21.47;;;4.90;99.90;;;;;;5026789;28;20295;-67
2022/03/02 07:20:39;;;;;;;38.93;21.10;;;4.90;99.90;;;;;;5028740;28;20196;-66
2022/03/02 07:23:15;;;;;;;37.27;20.70;;;5.00;99.90;;;;;;5029123;28;20206;-67
2022/03/02 07:25:44;;;;;;;41.43;21.40;;;5.10;99.90;;;;;;5027593;28;20208;-67
2022/03/02 07:28:15;;;;;;;38.97;20.73;;;5.20;99.90;;;;;;5026099;28;20731;-67
2022/03/02 07:30:47;;;;;;;43.87;19.43;;;5.20;99.90;;;;;;5024903;28;20286;-67
2022/03/02 07:33:19;;;;;;;40.57;20.97;;;5.30;99.90;;;;;;5028649;28;20193;-67
2022/03/02 07:35:55;;;;;;;44.30;20.87;;;5.30;99.90;;;;;;5021282;28;20860;-67
2022/03/02 07:38:24;;;;;;;40.60;20.83;;;5.40;99.90;;;;;;5031187;28;20204;-67
2022/03/02 07:40:53;;;;;;;37.80;19.67;;;5.40;99.90;;;;;;5027808;28;20528;-66
2022/03/02 07:43:22;;;;;;;37.77;20.83;;;5.40;99.90;;;;;;5027184;28;20193;-67
2022/03/02 07:45:52;;;;;;;37.03;20.63;;;5.50;99.90;;;;;;5019238;28;20197;-67
2022/03/02 07:48:21;;;;;;;45.07;20.50;;;5.50;99.90;;;;;;5021968;28;20227;-66
2022/03/02 07:50:50;;;;;;;41.80;21.10;;;5.60;99.90;;;;;;5030360;28;20252;-66
2022/03/02 07:53:25;;;;;;;39.73;20.20;;;5.70;99.90;;;;;;5030139;28;20185;-66
2022/03/02 07:55:55;;;;;;;41.27;21.00;;;5.80;99.90;;;;;;5020467;28;20193;-67
2022/03/02 07:58:25;;;;;;;42.17;21.37;;;5.80;99.90;;;;;;5020573;28;20221;-66
2022/03/02 08:00:56;;;;;;;44.43;22.43;;;6.00;99.90;;;;;;5023836;28;20205;-67
2022/03/02 08:03:27;;;;;;;40.03;20.30;;;6.10;99.90;;;;;;5033663;28;20226;-67
2022/03/02 08:05:59;;;;;;;47.83;22.43;;;6.20;99.90;;;;;;5026086;28;20201;-67
2022/03/02 08:08:28;;;;;;;47.40;21.40;;;6.30;99.90;;;;;;5023663;28;20228;-67
2022/03/02 08:10:57;;;;;;;41.50;20.47;;;6.50;99.90;;;;;;5034114;28;20265;-67
2022/03/02 08:13:25;;;;;;;41.03;21.23;;;6.70;99.90;;;;;;5025544;28;20199;-67
2022/03/02 08:15:56;;;;;;;39.47;20.33;;;6.90;99.90;;;;;;5028838;28;20196;-67
2022/03/02 08:18:25;;;;;;;36.40;19.73;;;7.20;99.90;;;;;;5040984;28;20255;-67
2022/03/02 08:20:58;;;;;;;42.30;19.97;;;7.40;99.90;;;;;;5034029;28;20178;-67
2022/03/02 08:23:33;;;;;;;34.57;18.43;;;7.60;99.90;;;;;;5024955;28;20197;-67
2022/03/02 08:26:03;;;;;;;38.53;19.17;;;7.80;99.90;;;;;;5022374;28;20293;-66
2022/03/02 08:28:35;;;;;;;39.40;19.60;;;8.00;99.90;;;;;;5040452;28;20331;-67
2022/03/02 08:31:05;;;;;;;37.03;19.90;;;8.30;99.90;;;;;;5030547;28;20228;-67
2022/03/02 08:33:35;;;;;;;33.27;20.27;;;8.60;99.90;;;;;;5031805;28;20201;-67
2022/03/02 08:36:05;;;;;;;38.87;18.90;;;8.80;99.90;;;;;;5025771;28;20197;-68
2022/03/02 08:38:40;;;;;;;38.77;19.90;;;9.00;99.90;;;;;;5032753;28;20217;-67
2022/03/02 08:41:10;;;;;;;38.97;20.60;;;9.30;99.90;;;;;;5026338;28;20234;-67
2022/03/02 08:43:39;;;;;;;37.43;20.93;;;9.30;99.90;;;;;;5029854;28;20198;-67
2022/03/02 08:46:08;;;;;;;38.53;20.63;;;9.10;99.90;;;;;;5022534;28;20198;-67
2022/03/02 08:48:37;;;;;;;39.43;20.47;;;9.00;99.90;;;;;;5027721;28;20208;-67
2022/03/02 08:51:06;;;;;;;44.53;22.37;;;9.10;99.90;;;;;;5034548;28;20197;-67
2022/03/02 08:53:35;;;;;;;44.43;24.67;;;9.30;99.90;;;;;;5025837;28;20194;-68
2022/03/02 08:56:06;;;;;;;39.63;22.17;;;9.80;99.90;;;;;;5020733;28;20209;-67
2022/03/02 08:58:37;;;;;;;40.80;22.60;;;9.90;99.90;;;;;;5025917;28;20291;-68
2022/03/02 09:01:05;;;;;;;35.77;21.00;;;10.00;99.90;;;;;;5026016;28;20197;-67
2022/03/02 09:03:36;;;;;;;38.23;21.37;;;10.00;99.90;;;;;;5027398;28;20689;-67
2022/03/02 09:06:05;;;;;;;38.73;21.13;;;10.00;99.90;;;;;;5031114;28;20743;-67
2022/03/02 09:08:39;;;;;;;43.67;21.50;;;10.20;99.90;;;;;;5026965;28;20287;-68
2022/03/02 09:11:08;;;;;;;42.13;21.50;;;10.40;99.90;;;;;;5028501;28;20697;-67
2022/03/02 09:13:37;;;;;;;39.60;22.40;;;10.50;99.90;;;;;;5026371;28;20583;-66
2022/03/02 09:16:07;;;;;;;42.47;21.00;;;10.30;99.90;;;;;;5027222;28;20190;-66
2022/03/02 09:18:38;;;;;;;35.50;20.50;;;10.10;99.90;;;;;;5032943;28;20243;-66
2022/03/02 09:21:07;;;;;;;32.70;21.47;;;10.00;99.90;;;;;;5027870;28;20190;-66
2022/03/02 09:23:41;;;;;;;38.23;21.70;;;9.90;99.90;;;;;;5028852;28;20218;-67
2022/03/02 09:26:12;;;;;;;38.33;22.33;;;9.80;99.90;;;;;;5026517;28;20620;-66
2022/03/02 09:28:42;;;;;;;35.07;21.80;;;9.90;99.90;;;;;;5042571;28;20275;-66
2022/03/02 09:31:14;;;;;;;36.83;21.57;;;10.00;99.90;;;;;;5026972;28;20208;-66
2022/03/02 09:33:48;;;;;;;39.30;21.20;;;10.10;99.90;;;;;;5026658;28;20197;-66
2022/03/02 09:36:21;;;;;;;38.30;21.97;;;10.00;99.90;;;;;;5034133;28;20231;-68
2022/03/02 09:38:51;;;;;;;36.03;21.70;;;10.00;99.90;;;;;;5022356;28;20216;-66
2022/03/02 09:41:28;;;;;;;35.90;22.10;;;10.00;99.90;;;;;;5030696;28;20202;-68
2022/03/02 09:43:58;;;;;;;40.63;22.73;;;9.90;99.90;;;;;;5022545;28;20219;-66
2022/03/02 09:46:34;;;;;;;38.07;22.60;;;9.70;99.90;;;;;;5015443;28;20198;-68
2022/03/02 09:49:09;;;;;;;54.67;23.37;;;9.70;99.90;;;;;;5018428;28;20193;-68
2022/03/02 09:51:40;;;;;;;41.97;23.23;;;9.60;99.90;;;;;;5023728;28;20205;-67
2022/03/02 09:54:10;;;;;;;41.30;21.90;;;9.70;99.90;;;;;;5025804;28;20240;-67
2022/03/02 09:56:39;;;;;;;41.27;21.97;;;9.80;99.90;;;;;;5026222;28;20189;-67
2022/03/02 09:59:09;;;;;;;41.13;22.10;;;10.00;99.90;;;;;;5030614;28;20259;-67
2022/03/02 10:01:41;;;;;;;38.33;22.10;;;10.20;99.90;;;;;;5029601;28;20203;-67
2022/03/02 10:04:21;;;;;;;37.07;21.60;;;10.30;99.90;;;;;;5029132;28;20205;-67
2022/03/02 10:07:26;;;;;;;38.90;22.20;;;10.10;99.90;;;;;;5026755;28;20205;-67
2022/03/02 10:09:48;;;;;;;40.90;21.73;;;9.90;99.90;;;;;;5026402;28;20566;-67
2022/03/02 10:12:17;;;;;;;41.23;22.00;;;10.10;99.90;;;;;;5030357;28;20276;-67
2022/03/02 10:14:47;;;;;;;37.80;21.53;;;10.40;99.90;;;;;;5023726;28;20594;-68
2022/03/02 10:17:19;;;;;;;40.73;23.20;;;10.60;99.90;;;;;;5017534;28;20619;-67
2022/03/02 10:19:54;;;;;;;44.03;22.77;;;10.60;99.90;;;;;;5029753;28;20582;-67
2022/03/02 10:22:44;;;;;;;33.87;21.20;;;10.60;99.90;;;;;;5026663;28;20198;-67
2022/03/02 10:25:14;;;;;;;38.20;22.57;;;10.90;99.90;;;;;;5029645;28;20600;-67
2022/03/02 10:27:55;;;;;;;41.37;21.67;;;10.90;99.90;;;;;;5029942;28;20717;-67
2022/03/02 10:30:32;;;;;;;35.90;21.43;;;11.00;99.90;;;;;;5013525;28;20187;-67
2022/03/02 10:33:17;;;;;;;41.70;21.50;;;11.50;99.90;;;;;;5032574;28;21111;-67
2022/03/02 10:36:03;;;;;;;35.13;21.37;;;12.00;99.90;;;;;;5036387;28;20212;-67
2022/03/02 10:38:39;;;;;;;37.13;21.77;;;12.20;99.90;;;;;;5028274;28;20228;-66
2022/03/02 10:41:10;;;;;;;37.47;21.77;;;12.30;99.90;;;;;;5030501;28;20276;-67
2022/03/02 10:43:41;;;;;;;33.63;21.23;;;12.50;99.90;;;;;;5031226;28;20213;-67
2022/03/02 10:46:11;;;;;;;35.03;20.33;;;12.50;99.90;;;;;;5025776;28;20608;-66
2022/03/02 10:48:46;;;;;;;47.93;21.77;;;12.50;99.90;;;;;;5026229;28;20267;-66
2022/03/02 10:51:18;;;;;;;36.97;21.03;;;12.50;99.90;;;;;;5026578;28;20567;-67
2022/03/02 10:53:50;;;;;;;33.90;21.07;;;12.50;99.90;;;;;;5027802;28;20264;-67
2022/03/02 10:56:21;;;;;;;37.37;21.60;;;12.30;99.90;;;;;;5031313;28;20200;-67
2022/03/02 10:58:51;;;;;;;33.50;19.40;;;12.50;99.90;;;;;;5029089;28;20271;-66
2022/03/02 11:01:20;;;;;;;44.80;21.57;;;12.70;99.90;;;;;;5026946;28;20648;-67
2022/03/02 11:03:49;;;;;;;37.07;21.53;;;12.70;99.90;;;;;;5028469;28;20205;-67
2022/03/02 11:06:21;;;;;;;32.60;20.00;;;12.60;99.90;;;;;;5026392;28;20186;-68
2022/03/02 11:08:50;;;;;;;39.63;20.47;;;12.60;99.90;;;;;;5022292;28;20743;-67
2022/03/02 11:11:19;;;;;;;34.50;20.00;;;12.80;99.90;;;;;;5023577;28;20611;-68
2022/03/02 11:13:52;;;;;;;34.13;19.57;;;12.80;99.90;;;;;;5025180;28;20609;-67
2022/03/02 11:16:24;;;;;;;32.70;19.50;;;12.80;99.90;;;;;;5027344;28;20559;-67
2022/03/02 11:18:53;;;;;;;31.03;20.13;;;12.60;99.90;;;;;;5033811;28;20221;-67
2022/03/02 11:21:30;;;;;;;36.37;20.03;;;12.50;99.90;;;;;;5027548;28;20198;-67
2022/03/02 11:24:04;;;;;;;37.83;20.23;;;12.50;99.90;;;;;;5021023;28;20319;-67
2022/03/02 11:26:35;;;;;;;33.93;20.60;;;12.20;99.90;;;;;;5022953;28;20746;-67
2022/03/02 11:29:11;;;;;;;33.30;20.50;;;12.20;99.90;;;;;;5027297;28;20252;-67
2022/03/02 11:31:42;;;;;;;39.27;21.30;;;12.00;99.90;;;;;;5025993;28;20306;-67
2022/03/02 11:34:12;;;;;;;38.27;20.33;;;12.10;99.90;;;;;;5027777;28;20198;-67
2022/03/02 11:36:45;;;;;;;31.70;20.73;;;12.30;99.90;;;;;;5025081;28;20696;-67
2022/03/02 11:39:15;;;;;;;34.80;20.60;;;12.50;99.90;;;;;;5019921;28;20255;-67
2022/03/02 11:41:46;;;;;;;33.27;20.03;;;12.50;99.90;;;;;;5031336;28;20671;-67
2022/03/02 11:44:29;;;;;;;37.37;20.53;;;12.20;99.90;;;;;;5020425;28;20277;-67
2022/03/02 11:46:59;;;;;;;33.47;20.97;;;12.00;99.90;;;;;;5023148;28;20197;-67
2022/03/02 11:49:41;;;;;;;37.10;20.40;;;11.80;99.90;;;;;;5023642;28;20190;-67
2022/03/02 11:52:13;;;;;;;41.27;19.30;;;11.80;99.90;;;;;;5030267;28;20731;-68
2022/03/02 11:54:46;;;;;;;35.40;19.67;;;11.90;99.90;;;;;;5025134;28;20193;-68
2022/03/02 11:57:16;;;;;;;33.10;20.13;;;11.80;99.90;;;;;;5039141;28;20718;-67
2022/03/02 11:59:46;;;;;;;40.00;19.63;;;11.80;99.90;;;;;;5020208;28;20231;-68
2022/03/02 12:02:17;;;;;;;37.37;21.33;;;11.60;99.90;;;;;;5034606;28;20228;-68
2022/03/02 12:04:58;;;;;;;32.70;18.67;;;11.60;99.90;;;;;;5010531;28;20891;-68
2022/03/02 12:07:37;;;;;;;30.50;18.53;;;11.70;99.90;;;;;;5022386;28;20225;-67
2022/03/02 12:10:16;;;;;;;34.20;20.20;;;11.50;99.90;;;;;;5023741;28;20201;-67
2022/03/02 12:12:45;;;;;;;34.33;19.30;;;11.20;99.90;;;;;;5026192;28;20259;-68
2022/03/02 12:15:14;;;;;;;31.83;18.73;;;11.20;99.90;;;;;;5028655;28;20194;-67
2022/03/02 12:17:43;;;;;;;39.63;19.27;;;11.10;99.90;;;;;;5023440;28;20741;-69
2022/03/02 12:20:14;;;;;;;32.60;19.00;;;11.10;99.90;;;;;;5024887;28;20209;-67
2022/03/02 12:22:48;;;;;;;29.37;17.77;;;11.00;99.90;;;;;;5026639;28;20201;-67
2022/03/02 12:25:21;;;;;;;29.17;18.07;;;11.10;99.90;;;;;;5023679;28;20819;-67
2022/03/02 12:28:00;;;;;;;32.47;18.80;;;11.10;99.90;;;;;;5025986;28;20197;-67
2022/03/02 12:30:29;;;;;;;34.33;18.13;;;11.10;99.90;;;;;;5022729;28;20259;-68
2022/03/02 12:32:58;;;;;;;35.57;18.40;;;11.20;99.90;;;;;;5021954;28;20194;-66
2022/03/02 12:35:27;;;;;;;32.03;18.00;;;11.40;99.90;;;;;;5020653;28;20272;-68
2022/03/02 12:37:59;;;;;;;32.17;18.77;;;11.30;99.90;;;;;;5035490;28;20281;-67
2022/03/02 12:40:29;;;;;;;33.43;18.23;;;11.40;99.90;;;;;;5025656;28;20306;-67
2022/03/02 12:42:58;;;;;;;35.53;18.23;;;11.60;99.90;;;;;;5029100;28;20198;-67
2022/03/02 12:45:27;;;;;;;30.10;17.47;;;11.70;99.90;;;;;;5024234;28;20581;-67
2022/03/02 12:47:56;;;;;;;27.20;17.90;;;11.90;99.90;;;;;;5029962;28;20228;-67
2022/03/02 12:50:25;;;;;;;33.50;18.80;;;12.00;99.90;;;;;;5021329;28;20193;-68